sensor_id;sensor_type;location;lat;lon;timestamp;pressure;altitude;pressure_sealevel;temperature;humidity
14067;BME280;7108;42.684;23.350;2023-04-01T00:01:12;94455.44;;;12.30;100.00
14067;BME280;7108;42.684;23.350;2023-04-01T00:03:41;94457.75;;;12.21;100.00
14067;BME280;7108;42.684;23.350;2023-04-01T00:06:07;94465.47;;;12.26;100.00
14067;BME280;7108;42.684;23.350;2023-04-01T00:08:32;94460.06;;;12.08;100.00
14067;BME280;7108;42.684;23.350;2023-04-01T00:10:58;94454.66;;;12.08;100.00
14067;BME280;7108;42.684;23.350;2023-04-01T00:13:25;94455.44;;;12.05;100.00
14067;BME280;7108;42.684;23.350;2023-04-01T00:15:51;94470.09;;;12.04;100.00
14067;BME280;7108;42.684;23.350;2023-04-01T00:18:17;94473.94;;;11.89;100.00
14067;BME280;7108;42.684;23.350;2023-04-01T00:20:47;94468.53;;;11.82;100.00
14067;BME280;7108;42.684;23.350;2023-04-01T00:23:14;94473.16;;;11.82;100.00
14067;BME280;7108;42.684;23.350;2023-04-01T00:25:40;94473.91;;;11.79;100.00
14067;BME280;7108;42.684;23.350;2023-04-01T00:28:05;94467.75;;;11.78;100.00
14067;BME280;7108;42.684;23.350;2023-04-01T00:30:31;94465.81;;;11.82;100.00
14067;BME280;7108;42.684;23.350;2023-04-01T00:32:57;94465.44;;;11.87;100.00
14067;BME280;7108;42.684;23.350;2023-04-01T00:35:22;94463.53;;;11.84;100.00
14067;BME280;7108;42.684;23.350;2023-04-01T00:37:48;94465.03;;;11.78;100.00
14067;BME280;7108;42.684;23.350;2023-04-01T00:40:36;94462.72;;;11.74;100.00
14067;BME280;7108;42.684;23.350;2023-04-01T00:43:03;94450.41;;;11.79;100.00
14067;BME280;7108;42.684;23.350;2023-04-01T00:45:37;94441.50;;;11.76;100.00
14067;BME280;7108;42.684;23.350;2023-04-01T00:48:10;94442.66;;;11.75;100.00
14067;BME280;7108;42.684;23.350;2023-04-01T00:50:37;94433.41;;;11.72;100.00
14067;BME280;7108;42.684;23.350;2023-04-01T00:53:05;94425.69;;;11.60;100.00
14067;BME280;7108;42.684;23.350;2023-04-01T00:55:34;94431.09;;;11.64;100.00
14067;BME280;7108;42.684;23.350;2023-04-01T00:58:03;94422.25;;;11.70;100.00
14067;BME280;7108;42.684;23.350;2023-04-01T01:00:30;94404.91;;;11.71;100.00
14067;BME280;7108;42.684;23.350;2023-04-01T01:02:56;94415.66;;;11.75;100.00
14067;BME280;7108;42.684;23.350;2023-04-01T01:05:31;94405.69;;;11.78;100.00
14067;BME280;7108;42.684;23.350;2023-04-01T01:08:12;94405.69;;;11.78;100.00
14067;BME280;7108;42.684;23.350;2023-04-01T01:10:43;94396.41;;;11.69;100.00
14067;BME280;7108;42.684;23.350;2023-04-01T01:13:27;94396.03;;;11.64;100.00
14067;BME280;7108;42.684;23.350;2023-04-01T01:18:50;94392.53;;;11.56;100.00
14067;BME280;7108;42.684;23.350;2023-04-01T01:21:30;94391.00;;;11.55;100.00
14067;BME280;7108;42.684;23.350;2023-04-01T01:34:34;94364.78;;;11.56;100.00
14067;BME280;7108;42.684;23.350;2023-04-01T01:37:06;94369.00;;;11.53;100.00
14067;BME280;7108;42.684;23.350;2023-04-01T01:39:34;94370.19;;;11.56;100.00
14067;BME280;7108;42.684;23.350;2023-04-01T01:42:04;94365.56;;;11.60;100.00
14067;BME280;7108;42.684;23.350;2023-04-01T01:44:31;94356.69;;;11.56;100.00
14067;BME280;7108;42.684;23.350;2023-04-01T01:46:58;94357.84;;;11.58;100.00
14067;BME280;7108;42.684;23.350;2023-04-01T01:49:26;94359.78;;;11.61;100.00
14067;BME280;7108;42.684;23.350;2023-04-01T01:51:52;94367.47;;;11.70;100.00
14067;BME280;7108;42.684;23.350;2023-04-01T01:54:18;94353.63;;;11.71;100.00
14067;BME280;7108;42.684;23.350;2023-04-01T01:56:46;94349.00;;;11.72;100.00
14067;BME280;7108;42.684;23.350;2023-04-01T01:59:14;94351.69;;;11.75;100.00
14067;BME280;7108;42.684;23.350;2023-04-01T02:01:44;94341.25;;;11.77;100.00
14067;BME280;7108;42.684;23.350;2023-04-01T02:04:12;94356.28;;;11.57;100.00
14067;BME280;7108;42.684;23.350;2023-04-01T02:06:44;94352.44;;;11.58;100.00
14067;BME280;7108;42.684;23.350;2023-04-01T02:09:13;94345.88;;;11.52;100.00
14067;BME280;7108;42.684;23.350;2023-04-01T02:14:17;94333.94;;;11.53;100.00
14067;BME280;7108;42.684;23.350;2023-04-01T02:19:15;94332.00;;;11.54;100.00
14067;BME280;7108;42.684;23.350;2023-04-01T02:21:50;94332.44;;;11.66;100.00
14067;BME280;7108;42.684;23.350;2023-04-01T02:24:19;94324.69;;;11.68;100.00
14067;BME280;7108;42.684;23.350;2023-04-01T02:26:48;94313.91;;;11.68;100.00
14067;BME280;7108;42.684;23.350;2023-04-01T02:29:18;94325.09;;;11.63;100.00
14067;BME280;7108;42.684;23.350;2023-04-01T02:31:45;94321.59;;;11.42;100.00
14067;BME280;7108;42.684;23.350;2023-04-01T02:34:11;94340.84;;;11.33;100.00
14067;BME280;7108;42.684;23.350;2023-04-01T02:36:37;94333.16;;;11.35;100.00
14067;BME280;7108;42.684;23.350;2023-04-01T02:39:04;94325.81;;;11.46;100.00
14067;BME280;7108;42.684;23.350;2023-04-01T02:41:30;94336.25;;;11.51;100.00
14067;BME280;7108;42.684;23.350;2023-04-01T02:43:56;94335.50;;;11.58;100.00
14067;BME280;7108;42.684;23.350;2023-04-01T02:46:24;94345.91;;;11.63;100.00
14067;BME280;7108;42.684;23.350;2023-04-01T02:48:49;94347.84;;;11.59;100.00
14067;BME280;7108;42.684;23.350;2023-04-01T02:51:15;94341.66;;;11.55;100.00
14067;BME280;7108;42.684;23.350;2023-04-01T02:53:40;94350.13;;;11.57;100.00
14067;BME280;7108;42.684;23.350;2023-04-01T02:56:06;94350.53;;;11.59;100.00
14067;BME280;7108;42.684;23.350;2023-04-01T02:58:31;94360.94;;;11.53;100.00
14067;BME280;7108;42.684;23.350;2023-04-01T03:00:56;94364.03;;;11.59;100.00
14067;BME280;7108;42.684;23.350;2023-04-01T03:03:22;94367.06;;;11.43;100.00
14067;BME280;7108;42.684;23.350;2023-04-01T03:05:48;94379.69;;;11.15;100.00
14067;BME280;7108;42.684;23.350;2023-04-01T03:08:13;94371.63;;;11.22;100.00
14067;BME280;7108;42.684;23.350;2023-04-01T03:10:38;94377.78;;;11.19;100.00
14067;BME280;7108;42.684;23.350;2023-04-01T03:13:04;94373.91;;;11.10;100.00
14067;BME280;7108;42.684;23.350;2023-04-01T03:15:29;94375.38;;;10.90;100.00
14067;BME280;7108;42.684;23.350;2023-04-01T03:17:55;94380.81;;;11.00;100.00
14067;BME280;7108;42.684;23.350;2023-04-01T03:20:20;94379.66;;;11.05;100.00
14067;BME280;7108;42.684;23.350;2023-04-01T03:22:46;94374.63;;;11.00;100.00
14067;BME280;7108;42.684;23.350;2023-04-01T03:25:12;94383.94;;;11.12;100.00
14067;BME280;7108;42.684;23.350;2023-04-01T03:27:37;94373.91;;;11.06;100.00
14067;BME280;7108;42.684;23.350;2023-04-01T03:30:04;94391.59;;;11.07;100.00
14067;BME280;7108;42.684;23.350;2023-04-01T03:32:30;94394.69;;;11.06;100.00
14067;BME280;7108;42.684;23.350;2023-04-01T03:34:55;94385.84;;;11.09;100.00
14067;BME280;7108;42.684;23.350;2023-04-01T03:37:21;94392.78;;;11.06;100.00
14067;BME280;7108;42.684;23.350;2023-04-01T03:39:46;94388.56;;;11.22;100.00
14067;BME280;7108;42.684;23.350;2023-04-01T03:42:12;94369.72;;;11.26;100.00
14067;BME280;7108;42.684;23.350;2023-04-01T03:44:37;94366.22;;;11.18;100.00
14067;BME280;7108;42.684;23.350;2023-04-01T03:47:02;94354.28;;;11.23;100.00
14067;BME280;7108;42.684;23.350;2023-04-01T03:49:28;94341.97;;;11.29;100.00
14067;BME280;7108;42.684;23.350;2023-04-01T03:51:53;94331.19;;;11.22;100.00
14067;BME280;7108;42.684;23.350;2023-04-01T03:54:19;94316.53;;;11.26;100.00
14067;BME280;7108;42.684;23.350;2023-04-01T03:56:45;94301.91;;;11.24;100.00
14067;BME280;7108;42.684;23.350;2023-04-01T03:59:11;94296.50;;;11.07;100.00
14067;BME280;7108;42.684;23.350;2023-04-01T04:01:36;94280.31;;;11.03;100.00
14067;BME280;7108;42.684;23.350;2023-04-01T04:04:02;94272.22;;;11.03;100.00
14067;BME280;7108;42.684;23.350;2023-04-01T04:06:28;94270.69;;;11.09;100.00
14067;BME280;7108;42.684;23.350;2023-04-01T04:08:54;94272.22;;;11.00;100.00
14067;BME280;7108;42.684;23.350;2023-04-01T04:11:20;94283.03;;;11.10;100.00
14067;BME280;7108;42.684;23.350;2023-04-01T04:13:46;94259.53;;;11.14;100.00
14067;BME280;7108;42.684;23.350;2023-04-01T04:16:13;94260.28;;;11.04;100.00
14067;BME280;7108;42.684;23.350;2023-04-01T04:18:39;94249.53;;;11.08;100.00
14067;BME280;7108;42.684;23.350;2023-04-01T04:21:04;94251.44;;;11.14;100.00
14067;BME280;7108;42.684;23.350;2023-04-01T04:23:30;94253.00;;;11.15;100.00
14067;BME280;7108;42.684;23.350;2023-04-01T04:28:26;94230.66;;;11.28;100.00
14067;BME280;7108;42.684;23.350;2023-04-01T04:30:52;94227.19;;;11.28;100.00
14067;BME280;7108;42.684;23.350;2023-04-01T04:33:18;94222.19;;;11.30;100.00
14067;BME280;7108;42.684;23.350;2023-04-01T04:35:43;94223.31;;;11.29;100.00
14067;BME280;7108;42.684;23.350;2023-04-01T04:38:09;94224.47;;;11.31;100.00
14067;BME280;7108;42.684;23.350;2023-04-01T04:40:39;94219.50;;;11.33;100.00
14067;BME280;7108;42.684;23.350;2023-04-01T04:43:05;94226.03;;;11.36;100.00
14067;BME280;7108;42.684;23.350;2023-04-01T04:45:30;94219.47;;;11.30;100.00
14067;BME280;7108;42.684;23.350;2023-04-01T04:47:56;94213.31;;;11.19;100.00
14067;BME280;7108;42.684;23.350;2023-04-01T04:50:22;94207.56;;;11.13;100.00
14067;BME280;7108;42.684;23.350;2023-04-01T04:52:48;94205.22;;;11.15;100.00
14067;BME280;7108;42.684;23.350;2023-04-01T04:55:13;94202.16;;;11.17;100.00
14067;BME280;7108;42.684;23.350;2023-04-01T04:57:40;94197.16;;;11.22;100.00
14067;BME280;7108;42.684;23.350;2023-04-01T05:00:06;94202.56;;;11.33;100.00
14067;BME280;7108;42.684;23.350;2023-04-01T05:02:32;94184.81;;;11.32;100.00
14067;BME280;7108;42.684;23.350;2023-04-01T05:04:58;94187.53;;;11.32;100.00
14067;BME280;7108;42.684;23.350;2023-04-01T05:07:23;94194.84;;;11.24;100.00
14067;BME280;7108;42.684;23.350;2023-04-01T05:09:49;94189.44;;;11.24;100.00
14067;BME280;7108;42.684;23.350;2023-04-01T05:12:14;94185.59;;;11.36;100.00
14067;BME280;7108;42.684;23.350;2023-04-01T05:14:40;94179.81;;;11.37;100.00
14067;BME280;7108;42.684;23.350;2023-04-01T05:17:09;94165.16;;;11.42;100.00
14067;BME280;7108;42.684;23.350;2023-04-01T05:19:35;94171.31;;;11.42;100.00
14067;BME280;7108;42.684;23.350;2023-04-01T05:22:01;94168.63;;;11.49;100.00
14067;BME280;7108;42.684;23.350;2023-04-01T05:24:26;94160.56;;;11.53;100.00
14067;BME280;7108;42.684;23.350;2023-04-01T05:26:52;94152.81;;;11.58;100.00
14067;BME280;7108;42.684;23.350;2023-04-01T05:29:17;94148.56;;;11.64;100.00
14067;BME280;7108;42.684;23.350;2023-04-01T05:31:43;94152.81;;;11.51;100.00
14067;BME280;7108;42.684;23.350;2023-04-01T05:34:08;94145.47;;;11.66;100.00
14067;BME280;7108;42.684;23.350;2023-04-01T05:36:34;94149.69;;;11.77;100.00
14067;BME280;7108;42.684;23.350;2023-04-01T05:39:00;94157.75;;;11.80;100.00
14067;BME280;7108;42.684;23.350;2023-04-01T05:41:26;94158.56;;;11.77;100.00
14067;BME280;7108;42.684;23.350;2023-04-01T05:43:51;94165.09;;;11.80;100.00
14067;BME280;7108;42.684;23.350;2023-04-01T05:46:17;94169.69;;;11.86;100.00
14067;BME280;7108;42.684;23.350;2023-04-01T05:48:42;94150.03;;;11.89;100.00
14067;BME280;7108;42.684;23.350;2023-04-01T05:51:13;94154.56;;;12.17;100.00
14067;BME280;7108;42.684;23.350;2023-04-01T05:53:39;94145.66;;;12.20;100.00
14067;BME280;7108;42.684;23.350;2023-04-01T05:56:05;94135.81;;;12.57;100.00
14067;BME280;7108;42.684;23.350;2023-04-01T05:58:31;94136.63;;;13.08;100.00
14067;BME280;7108;42.684;23.350;2023-04-01T06:01:04;94127.72;;;13.51;100.00
14067;BME280;7108;42.684;23.350;2023-04-01T06:03:29;94147.09;;;13.83;100.00
14067;BME280;7108;42.684;23.350;2023-04-01T06:05:55;94130.97;;;14.06;100.00
14067;BME280;7108;42.684;23.350;2023-04-01T06:08:20;94126.69;;;14.12;100.00
14067;BME280;7108;42.684;23.350;2023-04-01T06:11:19;94128.03;;;14.27;100.00
14067;BME280;7108;42.684;23.350;2023-04-01T06:14:01;94126.94;;;14.50;100.00
14067;BME280;7108;42.684;23.350;2023-04-01T06:26:39;94131.50;;;13.94;100.00
14067;BME280;7108;42.684;23.350;2023-04-01T06:29:29;94141.56;;;13.93;100.00
14067;BME280;7108;42.684;23.350;2023-04-01T06:34:56;94123.75;;;13.63;100.00
14067;BME280;7108;42.684;23.350;2023-04-01T06:43:13;94116.88;;;13.51;100.00
14067;BME280;7108;42.684;23.350;2023-04-01T06:45:46;94095.72;;;13.43;100.00
14067;BME280;7108;42.684;23.350;2023-04-01T06:54:04;94105.47;;;13.33;100.00
14067;BME280;7108;42.684;23.350;2023-04-01T06:56:32;94089.28;;;13.30;100.00
14067;BME280;7108;42.684;23.350;2023-04-01T06:59:02;94074.63;;;13.27;100.00
14067;BME280;7108;42.684;23.350;2023-04-01T07:01:44;94080.03;;;13.27;100.00
14067;BME280;7108;42.684;23.350;2023-04-01T07:04:18;94070.81;;;13.21;100.00
14067;BME280;7108;42.684;23.350;2023-04-01T07:09:19;94092.38;;;13.28;100.00
14067;BME280;7108;42.684;23.350;2023-04-01T07:11:46;94080.06;;;13.24;100.00
14067;BME280;7108;42.684;23.350;2023-04-01T07:14:32;94071.78;;;13.38;100.00
14067;BME280;7108;42.684;23.350;2023-04-01T07:17:19;94073.25;;;13.49;100.00
14067;BME280;7108;42.684;23.350;2023-04-01T07:20:10;94061.94;;;13.58;100.00
14067;BME280;7108;42.684;23.350;2023-04-01T07:22:45;94055.44;;;13.52;100.00
14067;BME280;7108;42.684;23.350;2023-04-01T07:25:24;94080.91;;;13.54;100.00
14067;BME280;7108;42.684;23.350;2023-04-01T07:27:53;94076.66;;;13.53;100.00
14067;BME280;7108;42.684;23.350;2023-04-01T07:30:23;94082.75;;;13.61;100.00
14067;BME280;7108;42.684;23.350;2023-04-01T07:33:14;94076.91;;;13.66;100.00
14067;BME280;7108;42.684;23.350;2023-04-01T07:36:03;94082.69;;;13.68;100.00
14067;BME280;7108;42.684;23.350;2023-04-01T07:44:44;94064.41;;;13.78;100.00
14067;BME280;7108;42.684;23.350;2023-04-01T07:50:18;94063.47;;;13.92;100.00
14067;BME280;7108;42.684;23.350;2023-04-01T08:09:17;94034.47;;;14.19;100.00
14067;BME280;7108;42.684;23.350;2023-04-01T08:12:01;94041.38;;;14.23;100.00
14067;BME280;7108;42.684;23.350;2023-04-01T08:15:11;94033.22;;;14.27;100.00
14067;BME280;7108;42.684;23.350;2023-04-01T08:18:03;94024.91;;;14.37;100.00
14067;BME280;7108;42.684;23.350;2023-04-01T08:20:54;94017.09;;;14.43;100.00
14067;BME280;7108;42.684;23.350;2023-04-01T08:23:27;94008.31;;;14.35;100.00
14067;BME280;7108;42.684;23.350;2023-04-01T08:29:05;94005.44;;;14.45;100.00
14067;BME280;7108;42.684;23.350;2023-04-01T08:31:44;94003.38;;;14.53;100.00
14067;BME280;7108;42.684;23.350;2023-04-01T08:34:19;93990.00;;;14.65;100.00
14067;BME280;7108;42.684;23.350;2023-04-01T08:37:12;93980.81;;;14.82;100.00
14067;BME280;7108;42.684;23.350;2023-04-01T08:39:48;93972.03;;;14.98;100.00
14067;BME280;7108;42.684;23.350;2023-04-01T08:47:40;93941.00;;;15.18;100.00
14067;BME280;7108;42.684;23.350;2023-04-01T08:55:24;93924.06;;;15.53;100.00
14067;BME280;7108;42.684;23.350;2023-04-01T08:58:16;93929.53;;;15.69;100.00
14067;BME280;7108;42.684;23.350;2023-04-01T09:14:40;93940.44;;;16.51;97.44
14067;BME280;7108;42.684;23.350;2023-04-01T09:17:30;93952.44;;;16.54;95.98
14067;BME280;7108;42.684;23.350;2023-04-01T09:28:28;93923.78;;;16.49;81.58
14067;BME280;7108;42.684;23.350;2023-04-01T09:31:22;93920.31;;;16.49;78.18
14067;BME280;7108;42.684;23.350;2023-04-01T09:39:50;93903.56;;;16.50;80.77
14067;BME280;7108;42.684;23.350;2023-04-01T09:46:04;93896.72;;;16.46;84.41
14067;BME280;7108;42.684;23.350;2023-04-01T09:51:31;93875.78;;;16.43;85.68
14067;BME280;7108;42.684;23.350;2023-04-01T10:16:29;93850.88;;;16.60;96.75
14067;BME280;7108;42.684;23.350;2023-04-01T10:30:07;93826.81;;;16.31;94.68
14067;BME280;7108;42.684;23.350;2023-04-01T10:33:14;93829.94;;;16.29;94.15
14067;BME280;7108;42.684;23.350;2023-04-01T10:55:04;93798.50;;;16.12;100.00
14067;BME280;7108;42.684;23.350;2023-04-01T11:26:18;93786.78;;;16.15;100.00
14067;BME280;7108;42.684;23.350;2023-04-01T11:29:18;93794.97;;;15.99;100.00
14067;BME280;7108;42.684;23.350;2023-04-01T11:32:41;93822.53;;;15.98;100.00
14067;BME280;7108;42.684;23.350;2023-04-01T11:38:04;93877.38;;;15.93;100.00
14067;BME280;7108;42.684;23.350;2023-04-01T11:40:56;93868.63;;;15.85;100.00
14067;BME280;7108;42.684;23.350;2023-04-01T11:43:37;93890.56;;;15.59;100.00
14067;BME280;7108;42.684;23.350;2023-04-01T11:46:10;93919.47;;;15.30;100.00
14067;BME280;7108;42.684;23.350;2023-04-01T11:48:51;93950.47;;;15.10;100.00
14067;BME280;7108;42.684;23.350;2023-04-01T11:51:59;93972.81;;;14.52;100.00
14067;BME280;7108;42.684;23.350;2023-04-01T12:12:32;94065.38;;;12.27;100.00
14067;BME280;7108;42.684;23.350;2023-04-01T12:15:04;94073.97;;;12.08;100.00
14067;BME280;7108;42.684;23.350;2023-04-01T12:17:43;94064.34;;;12.07;100.00
14067;BME280;7108;42.684;23.350;2023-04-01T12:28:35;94087.78;;;12.78;100.00
14067;BME280;7108;42.684;23.350;2023-04-01T12:34:25;94091.75;;;12.67;100.00
14067;BME280;7108;42.684;23.350;2023-04-01T12:37:06;94100.63;;;12.64;100.00
14067;BME280;7108;42.684;23.350;2023-04-01T12:42:36;94092.34;;;12.34;100.00
14067;BME280;7108;42.684;23.350;2023-04-01T12:45:30;94090.50;;;12.17;100.00
14067;BME280;7108;42.684;23.350;2023-04-01T12:55:44;94090.06;;;12.29;100.00
14067;BME280;7108;42.684;23.350;2023-04-01T13:00:48;94067.22;;;12.37;100.00
14067;BME280;7108;42.684;23.350;2023-04-01T13:03:41;94050.97;;;12.44;100.00
14067;BME280;7108;42.684;23.350;2023-04-01T13:09:09;94027.81;;;12.46;100.00
14067;BME280;7108;42.684;23.350;2023-04-01T13:17:20;94003.44;;;12.57;100.00
14067;BME280;7108;42.684;23.350;2023-04-01T13:20:41;93992.09;;;12.69;100.00
14067;BME280;7108;42.684;23.350;2023-04-01T13:28:25;93992.75;;;12.83;100.00
14067;BME280;7108;42.684;23.350;2023-04-01T13:33:47;93979.75;;;13.11;100.00
14067;BME280;7108;42.684;23.350;2023-04-01T13:36:28;93963.00;;;13.23;100.00
14067;BME280;7108;42.684;23.350;2023-04-01T13:44:21;93933.13;;;13.64;100.00
14067;BME280;7108;42.684;23.350;2023-04-01T13:47:03;93918.97;;;13.53;100.00
14067;BME280;7108;42.684;23.350;2023-04-01T13:55:20;93918.53;;;13.54;100.00
14067;BME280;7108;42.684;23.350;2023-04-01T13:58:20;93921.56;;;13.60;100.00
14067;BME280;7108;42.684;23.350;2023-04-01T14:06:40;93902.13;;;13.38;100.00
14067;BME280;7108;42.684;23.350;2023-04-01T14:17:53;93890.88;;;13.13;100.00
14067;BME280;7108;42.684;23.350;2023-04-01T14:20:42;93881.97;;;13.13;100.00
14067;BME280;7108;42.684;23.350;2023-04-01T14:26:11;93871.13;;;13.16;100.00
14067;BME280;7108;42.684;23.350;2023-04-01T14:47:53;93841.47;;;13.62;100.00
14067;BME280;7108;42.684;23.350;2023-04-01T14:50:25;93841.34;;;13.73;100.00
14067;BME280;7108;42.684;23.350;2023-04-01T15:12:06;93856.19;;;13.87;100.00
14067;BME280;7108;42.684;23.350;2023-04-01T15:23:11;93871.22;;;13.66;100.00
14067;BME280;7108;42.684;23.350;2023-04-01T15:31:29;93873.31;;;13.55;100.00
14067;BME280;7108;42.684;23.350;2023-04-01T15:38:25;93860.56;;;13.55;100.00
14067;BME280;7108;42.684;23.350;2023-04-01T15:40:30;93868.59;;;13.59;100.00
14067;BME280;7108;42.684;23.350;2023-04-01T15:51:47;93982.00;;;13.50;100.00
14067;BME280;7108;42.684;23.350;2023-04-01T16:08:20;94141.16;;;10.01;100.00
14067;BME280;7108;42.684;23.350;2023-04-01T16:13:34;94159.75;;;9.53;100.00
14067;BME280;7108;42.684;23.350;2023-04-01T16:24:48;94188.00;;;9.26;100.00
14067;BME280;7108;42.684;23.350;2023-04-01T16:32:41;94194.13;;;9.26;100.00
14067;BME280;7108;42.684;23.350;2023-04-01T16:35:40;94194.16;;;9.30;100.00
14067;BME280;7108;42.684;23.350;2023-04-01T16:38:24;94203.38;;;9.29;100.00
14067;BME280;7108;42.684;23.350;2023-04-01T16:41:11;94211.53;;;9.39;100.00
14067;BME280;7108;42.684;23.350;2023-04-01T16:43:56;94212.72;;;9.45;100.00
14067;BME280;7108;42.684;23.350;2023-04-01T16:46:31;94201.19;;;9.48;100.00
14067;BME280;7108;42.684;23.350;2023-04-01T16:51:24;94203.03;;;9.34;100.00
14067;BME280;7108;42.684;23.350;2023-04-01T16:54:02;94206.16;;;9.39;100.00
14067;BME280;7108;42.684;23.350;2023-04-01T16:59:35;94201.94;;;9.42;100.00
14067;BME280;7108;42.684;23.350;2023-04-01T17:04:57;94197.69;;;9.41;100.00
14067;BME280;7108;42.684;23.350;2023-04-01T17:13:39;94222.16;;;9.22;100.00
14067;BME280;7108;42.684;23.350;2023-04-01T17:19:00;94233.91;;;9.04;100.00
14067;BME280;7108;42.684;23.350;2023-04-01T17:37:50;94226.22;;;9.02;100.00
14067;BME280;7108;42.684;23.350;2023-04-01T17:40:34;94223.16;;;9.04;100.00
14067;BME280;7108;42.684;23.350;2023-04-01T17:45:54;94248.38;;;8.92;100.00
14067;BME280;7108;42.684;23.350;2023-04-01T17:58:59;94283.91;;;8.75;100.00
14067;BME280;7108;42.684;23.350;2023-04-01T18:06:51;94314.63;;;8.78;100.00
14067;BME280;7108;42.684;23.350;2023-04-01T18:12:36;94316.47;;;8.74;100.00
14067;BME280;7108;42.684;23.350;2023-04-01T18:15:21;94317.59;;;8.69;100.00
14067;BME280;7108;42.684;23.350;2023-04-01T18:17:55;94319.47;;;8.69;100.00
14067;BME280;7108;42.684;23.350;2023-04-01T18:20:34;94329.88;;;8.70;100.00
14067;BME280;7108;42.684;23.350;2023-04-01T18:25:53;94321.78;;;8.67;100.00
14067;BME280;7108;42.684;23.350;2023-04-01T18:39:21;94315.22;;;8.64;100.00
14067;BME280;7108;42.684;23.350;2023-04-01T18:50:32;94335.69;;;8.76;100.00
14067;BME280;7108;42.684;23.350;2023-04-01T18:55:56;94339.63;;;8.85;100.00
14067;BME280;7108;42.684;23.350;2023-04-01T19:01:17;94337.88;;;9.03;100.00
14067;BME280;7108;42.684;23.350;2023-04-01T19:04:15;94346.69;;;9.00;100.00
14067;BME280;7108;42.684;23.350;2023-04-01T19:06:52;94345.53;;;8.98;100.00
14067;BME280;7108;42.684;23.350;2023-04-01T19:09:24;94352.50;;;9.06;100.00
14067;BME280;7108;42.684;23.350;2023-04-01T19:24:15;94344.72;;;9.33;100.00
14067;BME280;7108;42.684;23.350;2023-04-01T19:26:28;94350.16;;;9.40;100.00
14067;BME280;7108;42.684;23.350;2023-04-01T19:31:54;94345.97;;;9.43;100.00
14067;BME280;7108;42.684;23.350;2023-04-01T19:34:49;94354.72;;;9.36;100.00
14067;BME280;7108;42.684;23.350;2023-04-01T19:37:22;94360.94;;;9.44;100.00
14067;BME280;7108;42.684;23.350;2023-04-01T19:42:59;94371.59;;;9.33;100.00
14067;BME280;7108;42.684;23.350;2023-04-01T19:45:52;94380.47;;;9.37;100.00
14067;BME280;7108;42.684;23.350;2023-04-01T19:51:03;94378.53;;;9.34;100.00
14067;BME280;7108;42.684;23.350;2023-04-01T20:01:33;94386.16;;;9.32;100.00
14067;BME280;7108;42.684;23.350;2023-04-01T20:04:10;94383.53;;;9.36;100.00
14067;BME280;7108;42.684;23.350;2023-04-01T20:06:47;94380.06;;;9.35;100.00
14067;BME280;7108;42.684;23.350;2023-04-01T20:09:35;94381.53;;;9.29;100.00
14067;BME280;7108;42.684;23.350;2023-04-01T20:12:25;94383.09;;;9.30;100.00
14067;BME280;7108;42.684;23.350;2023-04-01T20:15:00;94387.81;;;9.40;100.00
14067;BME280;7108;42.684;23.350;2023-04-01T20:17:41;94392.34;;;9.36;100.00
14067;BME280;7108;42.684;23.350;2023-04-01T20:25:17;94396.59;;;9.37;100.00
14067;BME280;7108;42.684;23.350;2023-04-01T20:27:51;94401.63;;;9.42;100.00
14067;BME280;7108;42.684;23.350;2023-04-01T20:36:01;94403.84;;;9.73;100.00
14067;BME280;7108;42.684;23.350;2023-04-01T20:41:26;94403.28;;;9.54;100.00
14067;BME280;7108;42.684;23.350;2023-04-01T20:44:09;94397.53;;;9.55;100.00
14067;BME280;7108;42.684;23.350;2023-04-01T20:55:02;94402.41;;;9.43;100.00
14067;BME280;7108;42.684;23.350;2023-04-01T21:08:39;94413.13;;;9.39;100.00
14067;BME280;7108;42.684;23.350;2023-04-01T21:14:29;94420.41;;;9.35;100.00
14067;BME280;7108;42.684;23.350;2023-04-01T21:25:21;94431.91;;;9.36;100.00
14067;BME280;7108;42.684;23.350;2023-04-01T21:28:12;94429.22;;;9.36;100.00
14067;BME280;7108;42.684;23.350;2023-04-01T21:33:30;94426.91;;;9.34;100.00
14067;BME280;7108;42.684;23.350;2023-04-01T21:42:10;94432.00;;;9.43;100.00
14067;BME280;7108;42.684;23.350;2023-04-01T22:06:24;94428.34;;;9.25;100.00
14067;BME280;7108;42.684;23.350;2023-04-01T22:09:15;94436.06;;;9.30;100.00
14067;BME280;7108;42.684;23.350;2023-04-01T22:12:09;94418.81;;;9.31;100.00
14067;BME280;7108;42.684;23.350;2023-04-01T22:17:21;94422.19;;;9.24;100.00
14067;BME280;7108;42.684;23.350;2023-04-01T22:20:17;94422.59;;;9.26;100.00
14067;BME280;7108;42.684;23.350;2023-04-01T22:28:27;94414.09;;;9.21;100.00
14067;BME280;7108;42.684;23.350;2023-04-01T22:30:59;94419.00;;;9.12;100.00
14067;BME280;7108;42.684;23.350;2023-04-01T22:33:34;94403.97;;;9.08;100.00
14067;BME280;7108;42.684;23.350;2023-04-01T22:36:28;94421.25;;;9.10;100.00
14067;BME280;7108;42.684;23.350;2023-04-01T22:45:01;94423.84;;;9.03;100.00
14067;BME280;7108;42.684;23.350;2023-04-01T22:47:42;94427.34;;;9.04;100.00
14067;BME280;7108;42.684;23.350;2023-04-01T22:52:42;94424.28;;;9.05;100.00
14067;BME280;7108;42.684;23.350;2023-04-01T22:55:25;94434.28;;;9.08;100.00
14067;BME280;7108;42.684;23.350;2023-04-01T23:00:24;94442.72;;;9.07;100.00
14067;BME280;7108;42.684;23.350;2023-04-01T23:05:47;94444.69;;;9.10;100.00
14067;BME280;7108;42.684;23.350;2023-04-01T23:11:03;94437.00;;;9.12;100.00
14067;BME280;7108;42.684;23.350;2023-04-01T23:13:45;94435.91;;;9.16;100.00
14067;BME280;7108;42.684;23.350;2023-04-01T23:16:14;94419.72;;;9.09;100.00
14067;BME280;7108;42.684;23.350;2023-04-01T23:21:50;94444.69;;;9.13;100.00
14067;BME280;7108;42.684;23.350;2023-04-01T23:24:24;94447.75;;;9.12;100.00
14067;BME280;7108;42.684;23.350;2023-04-01T23:27:13;94447.00;;;9.11;100.00
14067;BME280;7108;42.684;23.350;2023-04-01T23:29:40;94451.31;;;9.19;100.00